Pagrindinis puslapis
METAR-TAF:

METAR-TAF

Oro uostai :

Maskatas, Omanas

platuma: 23-35N, ilguma: 058-17E, Aukštis: 8 m

Dabartinis oras

Ataskaita buvo paskelbta 38 minutes, ne 10:50 UTC
Vėjas 8 kt iš Šiaurės/Šiaurės Vakarų, svyruoja nuo Vakarų/Šiaurės Vakarų ir Šiaurės
Temperatūra 22°C
Drėgmė 43%
Slėgis 1018 hPa
Matomumas 10 km arba daugiau
Mažai debesys ne aukštis 2000 ft
Išsisklaidę debesys ne aukštis 3500 ft

METAR: OOMS 281050Z 33008KT 300V010 9999 FEW020 SCT035 22/09 Q1018 NOSIG

Laikas: 15:28 (11:28 UTC)

Prognozė

Ataskaita buvo paskelbta 6 valandos ir 28 minutes, ne 05:00 UTC
Prognozė galioja nuo 28 metu 06 UTC su 29 metu 12 UTC
Vėjas 12 kt iš Šiaurės/Šiaurės Rytų
Matomumas: 8000 m
Tapsmas
nuo 28 metu 17 UTC su 28 metu 19 UTC
Vėjas 7 kt iš Pietų/Pietvakarių
Tapsmas
nuo 29 metu 05 UTC su 29 metu 07 UTC
Vėjas 10 kt iš Šiaurės/Šiaurės Rytų

TAF: OOMS 280500Z 2806/2912 03012KT 8000 NSC BECMG 2817/2819 21007KT BECMG 2905/2907 03010KT

Orai ataskaitas ir orų prognozės (METAR, TAF).

turimą stotys yra geltonos ir raudonos taškus žemėlapyje.

Perkelti pele per norėdami pamatyti stoties vardą.

Tada spustelėkite, norėdami matyti oro stebėjimo ir prognozės.

Norėdami pakeisti žemėlapį: spustelėkite ant žalios mygtukų su juodo kryžiaus žemyn,; žalią mygtuką su brūkšneliu, jei norite nutolinti; arba žalių rodyklių gretimoms žemėlapius.


METAR-TAF: